sensor_id;sensor_type;location;lat;lon;timestamp;temperature;humidity
36214;DHT22;37652;50.400;30.628;2022-07-06T10:13:06;39.20;62.50
36214;DHT22;37652;50.400;30.628;2022-07-06T10:17:09;39.30;58.90
36214;DHT22;37652;50.400;30.628;2022-07-06T10:21:11;38.80;59.30
36214;DHT22;37652;50.400;30.628;2022-07-06T10:23:12;38.50;59.30
36214;DHT22;37652;50.400;30.628;2022-07-06T10:25:17;39.70;58.50
36214;DHT22;37652;50.400;30.628;2022-07-06T10:27:18;40.40;57.50
36214;DHT22;37652;50.400;30.628;2022-07-06T10:29:19;40.30;56.60
36214;DHT22;37652;50.400;30.628;2022-07-06T10:31:22;40.20;56.90
36214;DHT22;37652;50.400;30.628;2022-07-06T10:33:25;40.40;56.10
36214;DHT22;37652;50.400;30.628;2022-07-06T10:35:26;41.10;56.40
36214;DHT22;37652;50.400;30.628;2022-07-06T10:37:28;40.80;56.40
36214;DHT22;37652;50.400;30.628;2022-07-06T10:39:37;40.40;56.40
36214;DHT22;37652;50.400;30.628;2022-07-06T10:41:56;40.90;56.20
36214;DHT22;37652;50.400;30.628;2022-07-06T10:43:58;41.50;56.10
36214;DHT22;37652;50.400;30.628;2022-07-06T10:46:15;41.10;56.30
36214;DHT22;37652;50.400;30.628;2022-07-06T10:48:18;40.50;56.30
36214;DHT22;37652;50.400;30.628;2022-07-06T10:50:21;40.90;56.40
36214;DHT22;37652;50.400;30.628;2022-07-06T10:54:23;41.30;62.40
36214;DHT22;37652;50.400;30.628;2022-07-06T10:56:37;40.60;56.00
36214;DHT22;37652;50.400;30.628;2022-07-06T10:58:49;41.00;55.80
36214;DHT22;37652;50.400;30.628;2022-07-06T11:00:52;39.30;57.60
36214;DHT22;37652;50.400;30.628;2022-07-06T11:13:27;40.20;56.10
36214;DHT22;37652;50.400;30.628;2022-07-06T11:15:47;39.40;56.00
36214;DHT22;37652;50.400;30.628;2022-07-06T11:18:11;39.70;56.00
36214;DHT22;37652;50.400;30.628;2022-07-06T11:20:13;40.10;55.80
36214;DHT22;37652;50.400;30.628;2022-07-06T11:22:15;39.80;55.90
36214;DHT22;37652;50.400;30.628;2022-07-06T11:24:18;39.90;55.90
36214;DHT22;37652;50.400;30.628;2022-07-06T11:30:21;39.00;58.10
36214;DHT22;37652;50.400;30.628;2022-07-06T11:32:26;39.10;56.50
36214;DHT22;37652;50.400;30.628;2022-07-06T11:34:32;39.40;57.10
36214;DHT22;37652;50.400;30.628;2022-07-06T11:36:33;39.30;57.60
36214;DHT22;37652;50.400;30.628;2022-07-06T11:38:34;39.00;56.10
36214;DHT22;37652;50.400;30.628;2022-07-06T11:42:39;38.50;55.70
36214;DHT22;37652;50.400;30.628;2022-07-06T11:44:41;38.90;56.30
36214;DHT22;37652;50.400;30.628;2022-07-06T11:46:42;39.20;56.00
36214;DHT22;37652;50.400;30.628;2022-07-06T11:48:51;39.50;55.90
36214;DHT22;37652;50.400;30.628;2022-07-06T11:51:00;39.10;55.20
36214;DHT22;37652;50.400;30.628;2022-07-06T11:53:01;39.30;55.50
36214;DHT22;37652;50.400;30.628;2022-07-06T11:55:02;39.60;55.10
36214;DHT22;37652;50.400;30.628;2022-07-06T11:57:03;39.70;54.60
36214;DHT22;37652;50.400;30.628;2022-07-06T11:59:07;39.70;54.60
36214;DHT22;37652;50.400;30.628;2022-07-06T12:01:10;39.10;55.40
36214;DHT22;37652;50.400;30.628;2022-07-06T12:03:11;39.00;56.00
36214;DHT22;37652;50.400;30.628;2022-07-06T12:05:12;37.30;57.10
36214;DHT22;37652;50.400;30.628;2022-07-06T12:07:15;36.00;57.50
36214;DHT22;37652;50.400;30.628;2022-07-06T12:09:16;35.60;58.40
36214;DHT22;37652;50.400;30.628;2022-07-06T12:11:31;36.50;57.70
36214;DHT22;37652;50.400;30.628;2022-07-06T12:13:39;37.30;57.60
36214;DHT22;37652;50.400;30.628;2022-07-06T12:17:47;37.00;57.90
36214;DHT22;37652;50.400;30.628;2022-07-06T12:19:52;36.10;58.30
36214;DHT22;37652;50.400;30.628;2022-07-06T12:23:57;36.40;58.60
36214;DHT22;37652;50.400;30.628;2022-07-06T12:25:57;35.80;58.90
36214;DHT22;37652;50.400;30.628;2022-07-06T12:30:08;36.60;58.10
36214;DHT22;37652;50.400;30.628;2022-07-06T12:32:16;36.70;58.50
36214;DHT22;37652;50.400;30.628;2022-07-06T12:34:19;37.30;57.40
36214;DHT22;37652;50.400;30.628;2022-07-06T12:36:20;37.50;57.40
36214;DHT22;37652;50.400;30.628;2022-07-06T12:38:27;37.30;57.50
36214;DHT22;37652;50.400;30.628;2022-07-06T12:42:31;37.20;57.60
36214;DHT22;37652;50.400;30.628;2022-07-06T12:44:32;36.90;57.80
36214;DHT22;37652;50.400;30.628;2022-07-06T12:46:41;36.20;58.60
36214;DHT22;37652;50.400;30.628;2022-07-06T12:48:55;35.60;58.90
36214;DHT22;37652;50.400;30.628;2022-07-06T12:50:56;35.40;59.60
36214;DHT22;37652;50.400;30.628;2022-07-06T12:52:58;35.40;59.40
36214;DHT22;37652;50.400;30.628;2022-07-06T12:55:00;35.20;59.00
36214;DHT22;37652;50.400;30.628;2022-07-06T12:59:42;35.00;60.20
36214;DHT22;37652;50.400;30.628;2022-07-06T13:01:47;34.60;60.30
36214;DHT22;37652;50.400;30.628;2022-07-06T13:03:54;34.30;60.60
36214;DHT22;37652;50.400;30.628;2022-07-06T13:05:55;34.00;60.60
36214;DHT22;37652;50.400;30.628;2022-07-06T13:07:57;33.90;61.20
36214;DHT22;37652;50.400;30.628;2022-07-06T13:09:58;33.60;61.20
36214;DHT22;37652;50.400;30.628;2022-07-06T13:11:59;33.50;61.20
36214;DHT22;37652;50.400;30.628;2022-07-06T13:14:00;33.60;61.50
36214;DHT22;37652;50.400;30.628;2022-07-06T13:18:02;33.30;62.40
36214;DHT22;37652;50.400;30.628;2022-07-06T13:20:07;33.20;62.50
36214;DHT22;37652;50.400;30.628;2022-07-06T13:22:08;33.10;63.20
36214;DHT22;37652;50.400;30.628;2022-07-06T13:24:09;32.90;63.30
36214;DHT22;37652;50.400;30.628;2022-07-06T13:28:11;32.20;64.20
36214;DHT22;37652;50.400;30.628;2022-07-06T13:30:12;31.90;64.90
36214;DHT22;37652;50.400;30.628;2022-07-06T13:32:13;31.60;65.60
36214;DHT22;37652;50.400;30.628;2022-07-06T13:34:14;31.10;66.70
36214;DHT22;37652;50.400;30.628;2022-07-06T13:36:15;30.60;68.00
36214;DHT22;37652;50.400;30.628;2022-07-06T13:40:17;30.10;69.70
36214;DHT22;37652;50.400;30.628;2022-07-06T13:42:18;29.90;70.70
36214;DHT22;37652;50.400;30.628;2022-07-06T13:44:18;29.70;74.00
36214;DHT22;37652;50.400;30.628;2022-07-06T13:46:19;29.60;71.70
36214;DHT22;37652;50.400;30.628;2022-07-06T13:50:22;29.40;72.70
36214;DHT22;37652;50.400;30.628;2022-07-06T13:52:25;29.20;73.40
36214;DHT22;37652;50.400;30.628;2022-07-06T13:56:27;29.20;73.90
36214;DHT22;37652;50.400;30.628;2022-07-06T13:58:28;29.20;74.00
36214;DHT22;37652;50.400;30.628;2022-07-06T14:00:29;29.10;74.30
36214;DHT22;37652;50.400;30.628;2022-07-06T14:04:31;29.00;75.50
36214;DHT22;37652;50.400;30.628;2022-07-06T14:08:32;28.80;76.00
36214;DHT22;37652;50.400;30.628;2022-07-06T14:16:37;27.90;83.00
36214;DHT22;37652;50.400;30.628;2022-07-06T14:18:37;27.70;82.80
36214;DHT22;37652;50.400;30.628;2022-07-06T14:20:38;27.50;84.20
36214;DHT22;37652;50.400;30.628;2022-07-06T14:22:39;26.80;90.60
36214;DHT22;37652;50.400;30.628;2022-07-06T14:24:40;25.80;92.60
36214;DHT22;37652;50.400;30.628;2022-07-06T14:26:41;25.50;93.70
36214;DHT22;37652;50.400;30.628;2022-07-06T14:30:44;24.80;97.50
36214;DHT22;37652;50.400;30.628;2022-07-06T14:32:45;24.70;99.20
36214;DHT22;37652;50.400;30.628;2022-07-06T14:36:46;24.20;99.90
36214;DHT22;37652;50.400;30.628;2022-07-06T14:38:47;24.00;99.90
36214;DHT22;37652;50.400;30.628;2022-07-06T14:40:48;23.90;99.90
36214;DHT22;37652;50.400;30.628;2022-07-06T14:42:50;24.00;99.90
36214;DHT22;37652;50.400;30.628;2022-07-06T14:44:50;24.00;99.90
36214;DHT22;37652;50.400;30.628;2022-07-06T14:46:51;24.00;99.90
36214;DHT22;37652;50.400;30.628;2022-07-06T14:48:52;24.10;99.90
36214;DHT22;37652;50.400;30.628;2022-07-06T14:50:53;23.90;99.90
36214;DHT22;37652;50.400;30.628;2022-07-06T14:52:54;24.70;99.90
36214;DHT22;37652;50.400;30.628;2022-07-06T14:54:55;24.10;99.90
36214;DHT22;37652;50.400;30.628;2022-07-06T14:56:57;24.40;99.90
36214;DHT22;37652;50.400;30.628;2022-07-06T14:58:58;24.50;99.90
36214;DHT22;37652;50.400;30.628;2022-07-06T15:01:02;24.50;99.90
36214;DHT22;37652;50.400;30.628;2022-07-06T15:05:05;24.70;99.90
36214;DHT22;37652;50.400;30.628;2022-07-06T15:07:05;25.00;99.90
36214;DHT22;37652;50.400;30.628;2022-07-06T15:09:06;25.30;99.90
36214;DHT22;37652;50.400;30.628;2022-07-06T15:11:07;25.20;99.90
36214;DHT22;37652;50.400;30.628;2022-07-06T15:13:07;25.50;99.90
36214;DHT22;37652;50.400;30.628;2022-07-06T15:15:08;25.60;99.90
36214;DHT22;37652;50.400;30.628;2022-07-06T15:21:12;25.30;99.90
36214;DHT22;37652;50.400;30.628;2022-07-06T15:23:12;24.60;99.90
36214;DHT22;37652;50.400;30.628;2022-07-06T15:25:13;24.70;99.90
36214;DHT22;37652;50.400;30.628;2022-07-06T15:27:14;24.50;99.90
36214;DHT22;37652;50.400;30.628;2022-07-06T15:29:14;24.40;99.90
36214;DHT22;37652;50.400;30.628;2022-07-06T15:31:18;24.50;99.90
36214;DHT22;37652;50.400;30.628;2022-07-06T15:33:19;24.60;99.90
36214;DHT22;37652;50.400;30.628;2022-07-06T15:35:19;24.70;99.90
36214;DHT22;37652;50.400;30.628;2022-07-06T15:37:20;24.80;99.90
36214;DHT22;37652;50.400;30.628;2022-07-06T15:41:22;25.10;99.90
36214;DHT22;37652;50.400;30.628;2022-07-06T15:43:23;25.40;99.90
36214;DHT22;37652;50.400;30.628;2022-07-06T15:45:23;25.20;99.90
36214;DHT22;37652;50.400;30.628;2022-07-06T15:47:25;25.30;99.90
36214;DHT22;37652;50.400;30.628;2022-07-06T15:49:26;25.50;99.90
36214;DHT22;37652;50.400;30.628;2022-07-06T15:51:27;25.50;99.90
36214;DHT22;37652;50.400;30.628;2022-07-06T15:55:29;25.50;99.90
36214;DHT22;37652;50.400;30.628;2022-07-06T15:57:30;25.70;99.90
36214;DHT22;37652;50.400;30.628;2022-07-06T15:59:31;25.60;99.90
36214;DHT22;37652;50.400;30.628;2022-07-06T16:01:32;25.50;99.90
36214;DHT22;37652;50.400;30.628;2022-07-06T16:03:32;25.50;99.90
36214;DHT22;37652;50.400;30.628;2022-07-06T16:05:33;25.50;99.90
36214;DHT22;37652;50.400;30.628;2022-07-06T16:07:34;25.30;99.90
36214;DHT22;37652;50.400;30.628;2022-07-06T16:09:35;25.30;99.90
36214;DHT22;37652;50.400;30.628;2022-07-06T16:11:35;25.30;99.90
36214;DHT22;37652;50.400;30.628;2022-07-06T16:13:36;25.10;99.90
36214;DHT22;37652;50.400;30.628;2022-07-06T16:15:38;24.70;99.90
36214;DHT22;37652;50.400;30.628;2022-07-06T16:19:40;24.70;99.90
36214;DHT22;37652;50.400;30.628;2022-07-06T16:21:40;24.70;99.90
36214;DHT22;37652;50.400;30.628;2022-07-06T16:23:41;24.70;99.90
36214;DHT22;37652;50.400;30.628;2022-07-06T16:25:42;24.70;99.90
36214;DHT22;37652;50.400;30.628;2022-07-06T16:27:43;24.70;99.90
36214;DHT22;37652;50.400;30.628;2022-07-06T16:29:44;24.70;99.90
36214;DHT22;37652;50.400;30.628;2022-07-06T16:31:44;24.70;99.90
36214;DHT22;37652;50.400;30.628;2022-07-06T16:33:45;24.70;99.90
36214;DHT22;37652;50.400;30.628;2022-07-06T16:35:46;24.30;99.90
36214;DHT22;37652;50.400;30.628;2022-07-06T16:37:47;24.30;99.90
36214;DHT22;37652;50.400;30.628;2022-07-06T16:39:47;24.30;99.90
36214;DHT22;37652;50.400;30.628;2022-07-06T16:41:48;24.20;99.90
36214;DHT22;37652;50.400;30.628;2022-07-06T16:45:52;24.10;99.90
36214;DHT22;37652;50.400;30.628;2022-07-06T16:47:53;23.40;99.90
36214;DHT22;37652;50.400;30.628;2022-07-06T16:49:53;23.40;99.90
36214;DHT22;37652;50.400;30.628;2022-07-06T16:51:54;23.20;99.90
36214;DHT22;37652;50.400;30.628;2022-07-06T16:53:55;23.50;99.90
36214;DHT22;37652;50.400;30.628;2022-07-06T16:55:55;23.10;99.90
36214;DHT22;37652;50.400;30.628;2022-07-06T16:57:57;23.00;99.90
36214;DHT22;37652;50.400;30.628;2022-07-06T16:59:57;23.10;99.90
36214;DHT22;37652;50.400;30.628;2022-07-06T17:01:58;22.80;99.90
36214;DHT22;37652;50.400;30.628;2022-07-06T17:03:58;22.90;99.90
36214;DHT22;37652;50.400;30.628;2022-07-06T17:05:59;23.20;99.90
36214;DHT22;37652;50.400;30.628;2022-07-06T17:08:00;23.20;99.90
36214;DHT22;37652;50.400;30.628;2022-07-06T17:10:01;23.40;99.90
36214;DHT22;37652;50.400;30.628;2022-07-06T17:12:02;23.40;99.90
36214;DHT22;37652;50.400;30.628;2022-07-06T17:14:13;23.90;99.90
36214;DHT22;37652;50.400;30.628;2022-07-06T17:16:14;23.50;99.90
36214;DHT22;37652;50.400;30.628;2022-07-06T17:18:15;23.60;99.90
36214;DHT22;37652;50.400;30.628;2022-07-06T17:20:16;23.50;99.90
36214;DHT22;37652;50.400;30.628;2022-07-06T17:22:17;23.30;99.90
36214;DHT22;37652;50.400;30.628;2022-07-06T17:24:20;23.60;99.90
36214;DHT22;37652;50.400;30.628;2022-07-06T17:26:20;23.50;99.90
36214;DHT22;37652;50.400;30.628;2022-07-06T17:28:21;23.30;99.90
36214;DHT22;37652;50.400;30.628;2022-07-06T17:30:22;23.60;99.90
36214;DHT22;37652;50.400;30.628;2022-07-06T17:32:25;23.50;99.90
36214;DHT22;37652;50.400;30.628;2022-07-06T17:34:25;23.30;99.90
36214;DHT22;37652;50.400;30.628;2022-07-06T17:36:26;23.60;99.90
36214;DHT22;37652;50.400;30.628;2022-07-06T17:38:28;23.70;99.90
36214;DHT22;37652;50.400;30.628;2022-07-06T17:40:30;23.80;99.90
36214;DHT22;37652;50.400;30.628;2022-07-06T17:44:33;23.80;99.90
36214;DHT22;37652;50.400;30.628;2022-07-06T17:46:34;23.70;99.90
36214;DHT22;37652;50.400;30.628;2022-07-06T17:48:36;23.70;99.90
36214;DHT22;37652;50.400;30.628;2022-07-06T17:52:38;23.60;99.90
36214;DHT22;37652;50.400;30.628;2022-07-06T17:54:41;24.20;99.90
36214;DHT22;37652;50.400;30.628;2022-07-06T17:56:42;23.40;99.90
36214;DHT22;37652;50.400;30.628;2022-07-06T17:58:43;23.60;99.90
36214;DHT22;37652;50.400;30.628;2022-07-06T18:00:44;23.60;99.90
36214;DHT22;37652;50.400;30.628;2022-07-06T18:02:45;23.60;99.90
36214;DHT22;37652;50.400;30.628;2022-07-06T18:04:46;22.50;99.90
36214;DHT22;37652;50.400;30.628;2022-07-06T18:10:50;23.40;99.90
36214;DHT22;37652;50.400;30.628;2022-07-06T18:14:55;23.30;99.90
36214;DHT22;37652;50.400;30.628;2022-07-06T18:16:56;22.80;99.90
36214;DHT22;37652;50.400;30.628;2022-07-06T18:18:58;23.00;99.90
36214;DHT22;37652;50.400;30.628;2022-07-06T18:20:59;23.10;99.90
36214;DHT22;37652;50.400;30.628;2022-07-06T18:23:00;22.90;99.90
36214;DHT22;37652;50.400;30.628;2022-07-06T18:25:01;23.20;99.90
36214;DHT22;37652;50.400;30.628;2022-07-06T18:27:03;22.70;99.90
36214;DHT22;37652;50.400;30.628;2022-07-06T18:29:05;22.90;99.90
36214;DHT22;37652;50.400;30.628;2022-07-06T18:31:07;22.50;99.90
36214;DHT22;37652;50.400;30.628;2022-07-06T18:35:09;22.80;99.90
36214;DHT22;37652;50.400;30.628;2022-07-06T18:37:10;22.70;99.90
36214;DHT22;37652;50.400;30.628;2022-07-06T18:39:11;22.60;99.90
36214;DHT22;37652;50.400;30.628;2022-07-06T18:41:12;22.80;99.90
36214;DHT22;37652;50.400;30.628;2022-07-06T18:43:14;22.90;99.90
36214;DHT22;37652;50.400;30.628;2022-07-06T18:45:16;23.20;99.90
36214;DHT22;37652;50.400;30.628;2022-07-06T18:47:17;22.60;99.90
36214;DHT22;37652;50.400;30.628;2022-07-06T18:49:22;22.80;99.90
36214;DHT22;37652;50.400;30.628;2022-07-06T18:51:23;23.30;99.90
36214;DHT22;37652;50.400;30.628;2022-07-06T18:53:24;22.70;99.90
36214;DHT22;37652;50.400;30.628;2022-07-06T18:55:26;22.70;99.90
36214;DHT22;37652;50.400;30.628;2022-07-06T18:57:26;22.70;99.90
36214;DHT22;37652;50.400;30.628;2022-07-06T18:59:28;22.60;99.90
36214;DHT22;37652;50.400;30.628;2022-07-06T19:01:29;22.80;99.90
36214;DHT22;37652;50.400;30.628;2022-07-06T19:03:32;22.60;99.90
36214;DHT22;37652;50.400;30.628;2022-07-06T19:05:35;22.50;99.90
36214;DHT22;37652;50.400;30.628;2022-07-06T19:07:36;22.50;99.90
36214;DHT22;37652;50.400;30.628;2022-07-06T19:09:36;22.60;99.90
36214;DHT22;37652;50.400;30.628;2022-07-06T19:11:37;22.60;99.90
36214;DHT22;37652;50.400;30.628;2022-07-06T19:13:38;22.50;99.90
36214;DHT22;37652;50.400;30.628;2022-07-06T19:15:40;22.50;99.90
36214;DHT22;37652;50.400;30.628;2022-07-06T19:17:41;22.50;99.90
36214;DHT22;37652;50.400;30.628;2022-07-06T19:19:41;22.20;99.90
36214;DHT22;37652;50.400;30.628;2022-07-06T19:21:42;22.50;99.90
36214;DHT22;37652;50.400;30.628;2022-07-06T19:25:44;22.50;99.90
36214;DHT22;37652;50.400;30.628;2022-07-06T19:27:45;22.40;99.90
36214;DHT22;37652;50.400;30.628;2022-07-06T19:29:46;22.00;99.90
36214;DHT22;37652;50.400;30.628;2022-07-06T19:31:47;22.60;99.90
36214;DHT22;37652;50.400;30.628;2022-07-06T19:33:48;22.30;99.90
36214;DHT22;37652;50.400;30.628;2022-07-06T19:37:50;22.30;99.90
36214;DHT22;37652;50.400;30.628;2022-07-06T19:39:51;22.40;99.90
36214;DHT22;37652;50.400;30.628;2022-07-06T19:41:51;22.20;99.90
36214;DHT22;37652;50.400;30.628;2022-07-06T19:43:52;22.80;99.90
36214;DHT22;37652;50.400;30.628;2022-07-06T19:45:53;22.30;99.90
36214;DHT22;37652;50.400;30.628;2022-07-06T19:49:55;22.20;99.90
36214;DHT22;37652;50.400;30.628;2022-07-06T19:53:56;22.10;99.90
36214;DHT22;37652;50.400;30.628;2022-07-06T19:56:00;22.30;99.90
36214;DHT22;37652;50.400;30.628;2022-07-06T19:58:01;22.20;99.90
36214;DHT22;37652;50.400;30.628;2022-07-06T20:00:03;22.10;99.90
36214;DHT22;37652;50.400;30.628;2022-07-06T20:02:04;21.50;99.90
36214;DHT22;37652;50.400;30.628;2022-07-06T20:04:05;21.90;99.90
36214;DHT22;37652;50.400;30.628;2022-07-06T20:06:06;21.90;99.90
36214;DHT22;37652;50.400;30.628;2022-07-06T20:08:06;21.80;99.90
36214;DHT22;37652;50.400;30.628;2022-07-06T20:10:07;21.60;99.90
36214;DHT22;37652;50.400;30.628;2022-07-06T20:12:08;21.80;99.90
36214;DHT22;37652;50.400;30.628;2022-07-06T20:14:09;21.80;99.90
36214;DHT22;37652;50.400;30.628;2022-07-06T20:16:09;21.70;99.90
36214;DHT22;37652;50.400;30.628;2022-07-06T20:18:10;21.80;99.90
36214;DHT22;37652;50.400;30.628;2022-07-06T20:20:11;21.50;99.90
36214;DHT22;37652;50.400;30.628;2022-07-06T20:22:12;21.70;99.90
36214;DHT22;37652;50.400;30.628;2022-07-06T20:24:12;21.60;99.90
36214;DHT22;37652;50.400;30.628;2022-07-06T20:26:13;21.20;99.90
36214;DHT22;37652;50.400;30.628;2022-07-06T20:28:14;21.50;99.90
36214;DHT22;37652;50.400;30.628;2022-07-06T20:32:16;21.60;99.90
36214;DHT22;37652;50.400;30.628;2022-07-06T20:34:16;21.50;99.90
36214;DHT22;37652;50.400;30.628;2022-07-06T20:36:17;21.50;99.90
36214;DHT22;37652;50.400;30.628;2022-07-06T20:40:19;21.20;99.90
36214;DHT22;37652;50.400;30.628;2022-07-06T20:42:19;21.50;99.90
36214;DHT22;37652;50.400;30.628;2022-07-06T20:44:20;21.50;99.90
36214;DHT22;37652;50.400;30.628;2022-07-06T20:46:24;21.60;99.90
36214;DHT22;37652;50.400;30.628;2022-07-06T20:48:24;21.50;99.90
36214;DHT22;37652;50.400;30.628;2022-07-06T20:50:25;21.60;99.90
36214;DHT22;37652;50.400;30.628;2022-07-06T20:52:26;21.40;99.90
36214;DHT22;37652;50.400;30.628;2022-07-06T20:54:27;21.10;99.90
36214;DHT22;37652;50.400;30.628;2022-07-06T20:56:27;21.20;99.90
36214;DHT22;37652;50.400;30.628;2022-07-06T20:58:28;21.50;99.90
36214;DHT22;37652;50.400;30.628;2022-07-06T21:00:29;21.40;99.90
36214;DHT22;37652;50.400;30.628;2022-07-06T21:02:29;21.80;99.90
36214;DHT22;37652;50.400;30.628;2022-07-06T21:04:30;21.30;99.90
36214;DHT22;37652;50.400;30.628;2022-07-06T21:06:31;21.10;99.90
36214;DHT22;37652;50.400;30.628;2022-07-06T21:08:31;21.30;99.90
36214;DHT22;37652;50.400;30.628;2022-07-06T21:10:32;21.30;99.90
36214;DHT22;37652;50.400;30.628;2022-07-06T21:12:33;21.40;99.90
36214;DHT22;37652;50.400;30.628;2022-07-06T21:14:33;22.10;99.90
36214;DHT22;37652;50.400;30.628;2022-07-06T21:16:34;21.30;99.90
36214;DHT22;37652;50.400;30.628;2022-07-06T21:18:35;21.20;99.90
36214;DHT22;37652;50.400;30.628;2022-07-06T21:20:35;21.30;99.90
36214;DHT22;37652;50.400;30.628;2022-07-06T21:22:36;21.40;99.90
36214;DHT22;37652;50.400;30.628;2022-07-06T21:24:37;21.30;99.90
36214;DHT22;37652;50.400;30.628;2022-07-06T21:26:37;21.30;99.90
36214;DHT22;37652;50.400;30.628;2022-07-06T21:28:38;21.30;99.90
36214;DHT22;37652;50.400;30.628;2022-07-06T21:30:39;21.20;99.90
36214;DHT22;37652;50.400;30.628;2022-07-06T21:32:40;20.90;99.90
36214;DHT22;37652;50.400;30.628;2022-07-06T21:34:40;21.20;99.90
36214;DHT22;37652;50.400;30.628;2022-07-06T21:36:41;21.00;99.90
36214;DHT22;37652;50.400;30.628;2022-07-06T21:38:42;21.10;99.90
36214;DHT22;37652;50.400;30.628;2022-07-06T21:40:43;21.10;99.90
36214;DHT22;37652;50.400;30.628;2022-07-06T21:42:43;21.00;99.90
36214;DHT22;37652;50.400;30.628;2022-07-06T21:44:44;20.80;99.90
36214;DHT22;37652;50.400;30.628;2022-07-06T21:46:45;21.00;99.90
36214;DHT22;37652;50.400;30.628;2022-07-06T21:48:46;21.50;99.90
36214;DHT22;37652;50.400;30.628;2022-07-06T21:50:47;20.90;99.90
36214;DHT22;37652;50.400;30.628;2022-07-06T21:52:48;20.60;99.90
36214;DHT22;37652;50.400;30.628;2022-07-06T21:54:49;20.80;99.90
36214;DHT22;37652;50.400;30.628;2022-07-06T21:56:49;20.80;99.90
36214;DHT22;37652;50.400;30.628;2022-07-06T21:58:50;20.90;99.90
36214;DHT22;37652;50.400;30.628;2022-07-06T22:00:51;20.90;99.90
36214;DHT22;37652;50.400;30.628;2022-07-06T22:02:52;20.80;99.90
36214;DHT22;37652;50.400;30.628;2022-07-06T22:04:53;20.80;99.90
36214;DHT22;37652;50.400;30.628;2022-07-06T22:06:54;20.80;99.90
36214;DHT22;37652;50.400;30.628;2022-07-06T22:08:55;20.90;99.90
36214;DHT22;37652;50.400;30.628;2022-07-06T22:10:56;20.70;99.90
36214;DHT22;37652;50.400;30.628;2022-07-06T22:12:57;20.70;99.90
36214;DHT22;37652;50.400;30.628;2022-07-06T22:14:57;20.60;99.90
36214;DHT22;37652;50.400;30.628;2022-07-06T22:16:58;20.50;99.90
36214;DHT22;37652;50.400;30.628;2022-07-06T22:18:58;20.40;99.90
36214;DHT22;37652;50.400;30.628;2022-07-06T22:20:59;20.40;99.90
36214;DHT22;37652;50.400;30.628;2022-07-06T22:23:00;20.40;99.90
36214;DHT22;37652;50.400;30.628;2022-07-06T22:25:02;20.50;99.90
36214;DHT22;37652;50.400;30.628;2022-07-06T22:27:03;20.20;99.90
36214;DHT22;37652;50.400;30.628;2022-07-06T22:29:04;20.30;99.90
36214;DHT22;37652;50.400;30.628;2022-07-06T22:31:06;20.40;99.90
36214;DHT22;37652;50.400;30.628;2022-07-06T22:33:06;20.40;99.90
36214;DHT22;37652;50.400;30.628;2022-07-06T22:35:07;20.00;99.90
36214;DHT22;37652;50.400;30.628;2022-07-06T22:39:08;20.50;99.90
36214;DHT22;37652;50.400;30.628;2022-07-06T22:41:09;20.00;99.90
36214;DHT22;37652;50.400;30.628;2022-07-06T22:43:10;20.60;99.90
36214;DHT22;37652;50.400;30.628;2022-07-06T22:45:11;19.90;99.90
36214;DHT22;37652;50.400;30.628;2022-07-06T22:47:11;20.60;99.90
36214;DHT22;37652;50.400;30.628;2022-07-06T22:49:12;20.60;99.90
36214;DHT22;37652;50.400;30.628;2022-07-06T22:53:14;20.30;99.90
36214;DHT22;37652;50.400;30.628;2022-07-06T22:59:17;19.80;99.90
36214;DHT22;37652;50.400;30.628;2022-07-06T23:01:17;20.20;99.90
36214;DHT22;37652;50.400;30.628;2022-07-06T23:03:18;20.10;99.90
36214;DHT22;37652;50.400;30.628;2022-07-06T23:07:21;19.90;99.90
36214;DHT22;37652;50.400;30.628;2022-07-06T23:09:21;20.60;99.90
36214;DHT22;37652;50.400;30.628;2022-07-06T23:11:23;19.70;99.90
36214;DHT22;37652;50.400;30.628;2022-07-06T23:15:25;19.60;99.90
36214;DHT22;37652;50.400;30.628;2022-07-06T23:17:25;19.30;99.90
36214;DHT22;37652;50.400;30.628;2022-07-06T23:21:27;18.90;99.90
36214;DHT22;37652;50.400;30.628;2022-07-06T23:23:28;19.60;99.90
36214;DHT22;37652;50.400;30.628;2022-07-06T23:25:28;19.40;99.90
36214;DHT22;37652;50.400;30.628;2022-07-06T23:31:31;18.90;99.90
36214;DHT22;37652;50.400;30.628;2022-07-06T23:39:35;18.50;99.90
36214;DHT22;37652;50.400;30.628;2022-07-06T23:41:36;18.60;99.90
36214;DHT22;37652;50.400;30.628;2022-07-06T23:43:36;19.10;99.90
36214;DHT22;37652;50.400;30.628;2022-07-06T23:45:37;19.00;99.90
36214;DHT22;37652;50.400;30.628;2022-07-06T23:47:38;18.80;99.90
36214;DHT22;37652;50.400;30.628;2022-07-06T23:49:39;18.60;99.90
36214;DHT22;37652;50.400;30.628;2022-07-06T23:51:39;18.70;99.90
36214;DHT22;37652;50.400;30.628;2022-07-06T23:53:40;18.50;99.90
36214;DHT22;37652;50.400;30.628;2022-07-06T23:55:41;19.10;99.90
36214;DHT22;37652;50.400;30.628;2022-07-06T23:59:42;18.20;99.90
